createdAt,value
2022-08-05T00:00:48.379Z,30.07
2022-08-05T00:06:05.410Z,30.09
2022-08-05T00:11:20.683Z,30.10
2022-08-05T00:16:35.386Z,30.10
2022-08-05T00:21:38.773Z,30.08
2022-08-05T00:26:51.668Z,30.03
2022-08-05T00:32:13.414Z,30.03
2022-08-05T00:37:16.989Z,30.00
2022-08-05T00:42:39.934Z,30.03
2022-08-05T00:47:57.128Z,29.98
2022-08-05T00:52:59.830Z,29.96
2022-08-05T00:58:01.955Z,29.96
2022-08-05T01:03:07.892Z,29.93
2022-08-05T01:08:40.968Z,29.82
2022-08-05T01:14:00.045Z,29.81
2022-08-05T01:19:16.305Z,29.68
2022-08-05T01:24:40.682Z,29.58
2022-08-05T01:29:50.151Z,29.51
2022-08-05T01:34:58.858Z,29.52
2022-08-05T01:40:02.198Z,29.50
2022-08-05T01:45:08.288Z,29.41
2022-08-05T01:50:15.396Z,29.32
2022-08-05T01:55:21.240Z,29.23
2022-08-05T02:00:30.502Z,29.13
2022-08-05T02:05:36.761Z,28.98
2022-08-05T02:11:12.779Z,28.88
2022-08-05T02:16:16.970Z,28.76
2022-08-05T02:21:31.514Z,28.67
2022-08-05T02:26:54.537Z,28.60
2022-08-05T02:31:58.163Z,28.53
2022-08-05T02:37:09.751Z,28.59
2022-08-05T02:42:12.074Z,28.65
2022-08-05T02:47:58.540Z,28.65
2022-08-05T02:52:53.797Z,28.63
2022-08-05T02:58:10.618Z,28.59
2022-08-05T03:03:20.193Z,28.55
2022-08-05T03:08:29.613Z,28.56
2022-08-05T03:13:52.141Z,28.47
2022-08-05T03:18:53.892Z,28.31
2022-08-05T03:23:57.959Z,28.14
2022-08-05T03:29:00.172Z,28.00
2022-08-05T03:34:04.337Z,27.88
2022-08-05T03:39:13.082Z,27.82
2022-08-05T03:44:22.447Z,27.63
2022-08-05T03:49:24.340Z,27.51
2022-08-05T03:56:05.996Z,27.44
2022-08-05T04:00:33.352Z,27.32
2022-08-05T04:05:36.335Z,27.22
2022-08-05T04:10:45.136Z,27.26
2022-08-05T04:16:03.243Z,27.16
2022-08-05T04:21:07.594Z,27.27
2022-08-05T04:26:17.451Z,27.39
2022-08-05T04:31:20.473Z,27.49
2022-08-05T04:36:45.648Z,27.56
2022-08-05T04:41:44.494Z,27.62
2022-08-05T04:46:48.551Z,27.66
2022-08-05T04:51:50.626Z,27.74
2022-08-05T04:57:02.498Z,27.82
2022-08-05T05:02:08.196Z,27.89
2022-08-05T05:07:29.511Z,27.96
2022-08-05T05:12:32.073Z,27.99
2022-08-05T05:17:56.743Z,28.01
2022-08-05T05:23:08.284Z,28.04
2022-08-05T05:28:21.622Z,28.05
2022-08-05T05:33:26.792Z,28.05
2022-08-05T05:38:29.603Z,28.05
2022-08-05T05:43:57.598Z,28.09
2022-08-05T05:48:53.475Z,28.21
2022-08-05T05:53:59.512Z,28.32
2022-08-05T05:59:07.399Z,28.46
2022-08-05T06:04:13.126Z,28.62
2022-08-05T06:09:26.503Z,28.82
2022-08-05T06:14:40.225Z,29.02
2022-08-05T06:19:42.346Z,29.20
2022-08-05T06:24:58.886Z,29.41
2022-08-05T06:30:02.751Z,29.63
2022-08-05T06:35:15.669Z,29.84
2022-08-05T06:40:32.399Z,30.05
2022-08-05T06:45:44.015Z,30.27
2022-08-05T06:50:47.139Z,30.53
2022-08-05T06:55:51.878Z,30.62
2022-08-05T07:00:54.253Z,30.76
2022-08-05T07:05:56.592Z,30.79
2022-08-05T07:10:59.009Z,30.83
2022-08-05T07:17:56.476Z,31.05
2022-08-05T07:22:00.038Z,31.01
2022-08-05T07:27:03.483Z,31.10
2022-08-05T07:32:12.424Z,31.21
2022-08-05T07:37:16.544Z,30.91
2022-08-05T07:42:18.839Z,30.76
2022-08-05T07:47:42.313Z,30.47
2022-08-05T07:52:44.799Z,30.31
2022-08-05T07:57:58.931Z,30.33
2022-08-05T08:03:14.707Z,30.47
2022-08-05T08:08:19.765Z,30.76
2022-08-05T08:13:29.432Z,31.12
2022-08-05T08:18:31.403Z,31.01
2022-08-05T08:24:02.357Z,30.83
2022-08-05T08:29:02.041Z,30.75
2022-08-05T08:34:18.667Z,30.65
2022-08-05T08:39:21.852Z,30.46
2022-08-05T08:45:23.562Z,30.68
2022-08-05T08:50:06.070Z,30.93
2022-08-05T08:55:13.413Z,31.29
2022-08-05T09:00:15.654Z,31.23
2022-08-05T09:05:38.550Z,31.35
2022-08-05T09:10:46.935Z,31.51
2022-08-05T09:15:49.430Z,31.65
2022-08-05T09:20:51.464Z,32.00
2022-08-05T09:26:09.231Z,32.29
2022-08-05T09:31:23.462Z,32.52
2022-08-05T09:36:56.268Z,32.61
2022-08-05T09:42:04.837Z,32.67
2022-08-05T09:47:21.843Z,32.67
2022-08-05T09:52:28.076Z,32.57
2022-08-05T09:57:45.464Z,32.78
2022-08-05T10:02:54.812Z,33.06
2022-08-05T10:08:35.703Z,33.14
2022-08-05T10:13:44.081Z,33.22
2022-08-05T10:18:49.905Z,33.41
2022-08-05T10:24:00.282Z,33.05
2022-08-05T10:29:02.848Z,33.02
2022-08-05T10:34:06.984Z,33.24
2022-08-05T10:39:24.859Z,32.98
2022-08-05T10:44:39.192Z,33.01
2022-08-05T10:50:33.237Z,33.12
2022-08-05T10:55:25.653Z,33.20
2022-08-05T11:00:30.169Z,33.44
2022-08-05T11:05:36.363Z,33.82
2022-08-05T11:10:50.431Z,34.11
2022-08-05T11:16:47.530Z,34.33
2022-08-05T11:21:49.516Z,34.36
2022-08-05T11:27:50.981Z,34.22
2022-08-05T11:33:43.849Z,34.02
2022-08-05T11:38:51.268Z,34.40
2022-08-05T11:44:06.730Z,34.64
2022-08-05T11:49:16.733Z,34.97
2022-08-05T11:54:33.446Z,34.99
2022-08-05T11:59:49.369Z,34.96
2022-08-05T12:04:58.971Z,35.34
2022-08-05T12:10:09.195Z,35.61
2022-08-05T12:15:35.971Z,35.84
2022-08-05T12:20:40.651Z,36.10
2022-08-05T12:25:51.544Z,35.82
2022-08-05T12:30:57.546Z,35.86
2022-08-05T12:36:07.908Z,35.98
2022-08-05T12:41:13.954Z,35.92
2022-08-05T12:46:45.486Z,35.93
2022-08-05T12:52:13.586Z,36.29
2022-08-05T12:57:13.346Z,36.59
2022-08-05T13:02:21.373Z,36.58
2022-08-05T13:07:59.463Z,36.26
2022-08-05T13:12:58.072Z,36.46
2022-08-05T13:18:00.602Z,36.64
2022-08-05T13:23:06.337Z,36.91
2022-08-05T13:28:10.615Z,36.85
2022-08-05T13:33:14.416Z,36.71
2022-08-05T13:38:38.482Z,36.72
2022-08-05T13:43:54.481Z,36.71
2022-08-05T13:49:00.853Z,36.67
2022-08-05T13:54:03.122Z,36.51
2022-08-05T13:59:19.512Z,36.56
2022-08-05T14:04:41.082Z,36.66
2022-08-05T14:09:46.507Z,36.78
2022-08-05T14:14:48.998Z,36.67
2022-08-05T14:19:59.605Z,36.63
2022-08-05T14:25:06.431Z,36.74
2022-08-05T14:30:25.549Z,36.50
2022-08-05T14:35:36.283Z,36.55
2022-08-05T14:40:39.622Z,36.62
2022-08-05T14:45:45.870Z,36.60
2022-08-05T14:50:47.863Z,36.56
2022-08-05T14:55:52.620Z,36.45
2022-08-05T15:00:59.272Z,36.40
2022-08-05T15:06:06.927Z,36.18
2022-08-05T15:11:10.598Z,36.19
2022-08-05T15:16:14.526Z,36.16
2022-08-05T15:21:20.938Z,36.08
2022-08-05T15:26:32.100Z,35.94
2022-08-05T15:31:34.745Z,35.70
2022-08-05T15:36:38.404Z,35.59
2022-08-05T15:41:55.770Z,35.54
2022-08-05T15:47:04.670Z,35.58
2022-08-05T15:52:13.717Z,35.48
2022-08-05T15:57:34.652Z,35.41
2022-08-05T16:02:37.346Z,35.27
2022-08-05T16:07:39.393Z,35.24
2022-08-05T16:12:49.008Z,35.23
2022-08-05T16:17:57.905Z,35.06
2022-08-05T16:23:00.186Z,34.91
2022-08-05T16:28:05.511Z,34.79
2022-08-05T16:33:08.272Z,34.77
2022-08-05T16:38:24.633Z,34.67
2022-08-05T16:43:30.450Z,34.56
2022-08-05T16:48:33.865Z,34.49
2022-08-05T16:54:02.986Z,34.40
2022-08-05T16:59:08.275Z,34.26
2022-08-05T17:04:10.589Z,34.03
2022-08-05T17:09:12.495Z,33.88
2022-08-05T17:14:22.207Z,33.78
2022-08-05T17:19:36.509Z,33.61
2022-08-05T17:24:40.526Z,33.37
2022-08-05T17:29:52.774Z,33.20
2022-08-05T17:35:02.262Z,32.94
2022-08-05T17:40:10.894Z,32.63
2022-08-05T17:45:20.694Z,32.55
2022-08-05T17:50:30.509Z,32.23
2022-08-05T17:55:38.082Z,32.06
2022-08-05T18:00:47.719Z,31.77
2022-08-05T18:05:53.683Z,31.43
2022-08-05T18:10:56.308Z,30.82
2022-08-05T18:15:59.187Z,30.23
2022-08-05T18:21:01.676Z,29.87
2022-08-05T18:26:03.605Z,29.56
2022-08-05T18:31:07.349Z,29.26
2022-08-05T18:36:15.350Z,28.90
2022-08-05T18:41:56.809Z,28.67
2022-08-05T18:46:40.956Z,28.64
2022-08-05T18:52:04.358Z,28.51
2022-08-05T18:57:14.991Z,28.22
2022-08-05T19:02:28.210Z,27.84
2022-08-05T19:07:45.063Z,27.28
2022-08-05T19:12:48.538Z,27.14
2022-08-05T19:18:09.365Z,26.95
2022-08-05T19:23:22.601Z,26.87
2022-08-05T19:28:35.117Z,26.92
2022-08-05T19:33:38.222Z,27.00
2022-08-05T19:38:43.914Z,26.68
2022-08-05T19:44:05.728Z,26.11
2022-08-05T19:49:08.433Z,26.00
2022-08-05T19:54:25.580Z,26.15
2022-08-05T20:00:00.225Z,26.27
2022-08-05T20:04:58.760Z,26.17
2022-08-05T20:10:01.366Z,25.92
2022-08-05T20:15:07.528Z,25.89
2022-08-05T20:20:11.235Z,25.67
2022-08-05T20:25:13.168Z,25.56
2022-08-05T20:30:15.381Z,25.46
2022-08-05T20:35:23.684Z,25.27
2022-08-05T20:40:26.508Z,24.69
2022-08-05T20:45:55.968Z,24.56
2022-08-05T20:50:52.063Z,24.63
2022-08-05T20:55:56.479Z,24.65
2022-08-05T21:01:10.737Z,24.36
2022-08-05T21:06:27.626Z,24.09
2022-08-05T21:12:07.034Z,23.85
2022-08-05T21:16:52.540Z,23.52
2022-08-05T21:21:54.389Z,23.28
2022-08-05T21:26:58.427Z,23.13
2022-08-05T21:32:04.187Z,23.04
2022-08-05T21:37:08.184Z,23.11
2022-08-05T21:42:30.659Z,23.18
2022-08-05T21:47:54.703Z,23.11
2022-08-05T21:52:58.747Z,23.12
2022-08-05T21:58:06.765Z,23.12
2022-08-05T22:03:15.226Z,23.00
2022-08-05T22:08:22.456Z,22.73
2022-08-05T22:14:32.341Z,22.70
2022-08-05T22:18:49.247Z,22.49
2022-08-05T22:24:13.274Z,21.95
2022-08-05T22:29:32.982Z,21.50
2022-08-05T22:34:35.214Z,21.14
2022-08-05T22:39:38.652Z,20.77
2022-08-05T22:44:48.476Z,20.64
2022-08-05T22:50:19.513Z,20.95
2022-08-05T22:55:24.130Z,21.20
2022-08-05T23:00:28.408Z,21.24
2022-08-05T23:05:35.924Z,21.22
2022-08-05T23:10:38.341Z,20.96
2022-08-05T23:15:40.895Z,20.87
2022-08-05T23:20:43.213Z,20.62
2022-08-05T23:25:52.145Z,20.61
2022-08-05T23:31:14.829Z,20.57
2022-08-05T23:36:18.766Z,20.65
2022-08-05T23:41:21.214Z,20.54
2022-08-05T23:46:23.758Z,20.50
2022-08-05T23:51:25.631Z,20.49
2022-08-05T23:56:28.139Z,20.65
